Time;durP1;ratioP1;P1;durP2;ratioP2;P2;SDS_P1;SDS_P2;PMS_P1;PMS_P2;Temp;Humidity;BMP_temperature;BMP_pressure;BME280_temperature;BME280_humidity;BME280_pressure;Samples;Min_cycle;Max_cycle;Signal;HPM_P1;HPM_P2
2022/06/08 00:01:59;;;;;;;11.82;4.80;;;11.90;99.90;;;;;;5076105;28;20548;-74
2022/06/08 00:04:24;;;;;;;11.75;5.03;;;11.90;99.90;;;;;;5043141;28;20048;-74
2022/06/08 00:06:52;;;;;;;10.57;5.30;;;11.80;99.90;;;;;;5045915;28;20511;-74
2022/06/08 00:09:18;;;;;;;12.35;5.55;;;11.80;99.90;;;;;;5042651;28;20156;-74
2022/06/08 00:11:44;;;;;;;9.73;4.55;;;11.70;99.90;;;;;;5038810;28;20151;-75
2022/06/08 00:14:10;;;;;;;10.07;5.32;;;11.70;99.90;;;;;;5044047;28;20552;-74
2022/06/08 00:16:35;;;;;;;11.40;5.30;;;11.70;99.90;;;;;;5046369;28;20053;-74
2022/06/08 00:19:01;;;;;;;12.95;5.00;;;11.70;99.90;;;;;;5041370;28;20456;-74
2022/06/08 00:21:26;;;;;;;8.43;4.72;;;11.70;99.90;;;;;;5031482;28;20041;-75
2022/06/08 00:23:52;;;;;;;10.73;5.53;;;11.70;99.90;;;;;;5045958;28;20037;-74
2022/06/08 00:26:18;;;;;;;14.30;5.70;;;11.70;99.90;;;;;;5042635;28;20655;-74
2022/06/08 00:28:43;;;;;;;11.35;5.05;;;11.70;99.90;;;;;;5045170;28;20366;-74
2022/06/08 00:31:10;;;;;;;13.63;5.57;;;11.60;99.90;;;;;;5041430;28;20051;-74
2022/06/08 00:33:36;;;;;;;10.15;5.43;;;11.60;99.90;;;;;;5043982;28;20059;-74
2022/06/08 00:36:02;;;;;;;10.88;5.40;;;11.60;99.90;;;;;;5046647;28;20124;-74
2022/06/08 00:38:28;;;;;;;9.45;5.03;;;11.50;99.90;;;;;;5044385;28;20041;-75
2022/06/08 00:41:24;;;;;;;14.32;5.82;;;11.40;99.90;;;;;;5046276;28;20056;-74
2022/06/08 00:43:50;;;;;;;15.15;6.05;;;11.50;99.90;;;;;;5047633;28;20044;-74
2022/06/08 00:46:16;;;;;;;14.48;6.13;;;11.40;99.90;;;;;;5044156;28;20041;-74
2022/06/08 00:48:48;;;;;;;15.68;6.03;;;11.40;99.90;;;;;;5046352;28;20044;-74
2022/06/08 00:51:13;;;;;;;11.50;5.68;;;11.40;99.90;;;;;;5043959;28;20084;-74
2022/06/08 00:53:50;;;;;;;14.23;5.47;;;11.30;99.90;;;;;;5042614;28;20449;-74
2022/06/08 00:56:19;;;;;;;13.00;6.63;;;11.30;99.90;;;;;;5047045;28;20067;-74
2022/06/08 00:58:45;;;;;;;8.85;5.68;;;11.30;99.90;;;;;;5047862;28;20123;-74
2022/06/08 01:01:11;;;;;;;8.75;5.70;;;11.30;99.90;;;;;;5049191;28;20444;-74
2022/06/08 01:03:37;;;;;;;6.90;4.95;;;11.30;99.90;;;;;;5052288;28;20191;-73
2022/06/08 01:06:04;;;;;;;13.50;6.22;;;11.30;99.90;;;;;;5047121;28;20099;-73
2022/06/08 01:08:44;;;;;;;8.52;5.13;;;11.30;99.90;;;;;;5048400;28;20079;-73
2022/06/08 01:11:20;;;;;;;8.55;6.13;;;11.30;99.90;;;;;;5048993;28;20041;-73
2022/06/08 01:13:46;;;;;;;10.85;6.70;;;11.30;99.90;;;;;;5046041;28;20044;-73
2022/06/08 01:16:13;;;;;;;15.05;6.55;;;11.30;99.90;;;;;;5048731;28;20454;-75
2022/06/08 01:18:39;;;;;;;12.27;6.93;;;11.30;99.90;;;;;;5050365;28;20558;-74
2022/06/08 01:21:20;;;;;;;14.25;5.72;;;11.20;99.90;;;;;;5040772;28;20044;-74
2022/06/08 01:23:55;;;;;;;8.63;5.00;;;11.20;99.90;;;;;;5047044;28;20107;-74
2022/06/08 01:26:36;;;;;;;10.77;5.13;;;11.10;99.90;;;;;;5049624;28;20044;-74
2022/06/08 01:29:25;;;;;;;9.85;4.60;;;11.20;99.90;;;;;;5039891;28;20132;-74
2022/06/08 01:32:26;;;;;;;15.30;5.38;;;11.10;99.90;;;;;;5050391;28;20041;-73
2022/06/08 01:35:15;;;;;;;12.32;4.97;;;11.10;99.90;;;;;;5048990;28;20416;-73
2022/06/08 01:37:46;;;;;;;7.70;4.65;;;11.00;99.90;;;;;;5050016;28;20037;-74
2022/06/08 01:40:58;;;;;;;11.82;5.25;;;11.00;99.90;;;;;;5041764;28;20073;-73
2022/06/08 01:43:32;;;;;;;10.73;5.10;;;11.00;99.90;;;;;;5035600;28;20060;-73
2022/06/08 01:46:17;;;;;;;10.40;5.25;;;11.00;99.90;;;;;;5046334;28;20366;-74
2022/06/08 01:48:52;;;;;;;11.30;6.65;;;11.00;99.90;;;;;;5044096;28;20329;-74
2022/06/08 01:51:28;;;;;;;11.70;5.63;;;11.00;99.90;;;;;;5048583;28;20044;-74
2022/06/08 01:54:27;;;;;;;16.52;5.45;;;11.00;99.90;;;;;;5051087;28;20124;-73
2022/06/08 01:57:02;;;;;;;10.45;6.15;;;11.00;99.90;;;;;;5039991;28;20052;-74
2022/06/08 01:59:31;;;;;;;8.18;4.97;;;10.90;99.90;;;;;;5044283;28;20052;-74
2022/06/08 02:01:57;;;;;;;6.85;4.82;;;10.90;99.90;;;;;;5045608;28;20037;-74
2022/06/08 02:04:40;;;;;;;9.65;4.88;;;10.90;99.90;;;;;;5047587;28;20094;-74
2022/06/08 02:07:27;;;;;;;7.72;4.97;;;10.80;99.90;;;;;;5038637;28;20049;-74
2022/06/08 02:10:07;;;;;;;7.00;4.93;;;10.90;99.90;;;;;;5049018;28;20048;-74
2022/06/08 02:12:39;;;;;;;7.40;5.05;;;10.80;99.90;;;;;;5047219;28;20043;-75
2022/06/08 02:15:10;;;;;;;7.65;4.75;;;10.90;99.90;;;;;;5048283;28;20047;-74
2022/06/08 02:17:45;;;;;;;;;;;10.90;99.90;;;;;;5045669;28;20118;-74
2022/06/08 02:20:34;;;;;;;16.23;5.13;;;10.90;99.90;;;;;;5049342;28;19948;-74
2022/06/08 02:23:08;;;;;;;11.63;5.63;;;10.90;99.90;;;;;;5046709;28;20064;-74
2022/06/08 02:25:46;;;;;;;9.63;5.85;;;10.90;99.90;;;;;;5050617;28;20037;-74
2022/06/08 02:28:24;;;;;;;12.05;6.00;;;10.90;99.90;;;;;;5046904;28;20037;-73
2022/06/08 02:30:58;;;;;;;11.20;4.95;;;10.90;99.90;;;;;;5064680;28;20131;-73
2022/06/08 02:36:28;;;;;;;9.70;5.28;;;10.90;99.90;;;;;;5039011;28;20049;-73
2022/06/08 02:39:07;;;;;;;9.00;4.95;;;10.90;99.90;;;;;;5074787;28;20144;-74
2022/06/08 02:41:36;;;;;;;9.73;4.90;;;10.90;99.90;;;;;;5048033;28;20588;-74
2022/06/08 02:44:06;;;;;;;9.93;5.78;;;10.90;99.90;;;;;;5038364;28;20071;-73
2022/06/08 02:46:47;;;;;;;10.75;6.10;;;10.90;99.90;;;;;;5045216;28;20072;-74
2022/06/08 02:49:12;;;;;;;10.98;6.15;;;10.90;99.90;;;;;;5048694;28;20128;-74
2022/06/08 02:51:44;;;;;;;14.10;5.60;;;10.90;99.90;;;;;;5044557;28;20075;-74
2022/06/08 02:54:20;;;;;;;8.25;5.38;;;10.90;99.90;;;;;;5048700;28;20346;-74
2022/06/08 02:56:59;;;;;;;12.00;6.25;;;10.80;99.90;;;;;;5039671;28;20132;-74
2022/06/08 02:59:44;;;;;;;10.95;4.63;;;10.70;99.90;;;;;;5046997;28;20045;-74
2022/06/08 03:02:25;;;;;;;11.90;5.55;;;10.70;99.90;;;;;;5047772;28;20041;-73
2022/06/08 03:05:13;;;;;;;12.95;5.75;;;10.70;99.90;;;;;;5047044;28;20137;-73
2022/06/08 03:07:49;;;;;;;11.27;5.85;;;10.70;99.90;;;;;;5043079;28;20037;-74
2022/06/08 03:10:16;;;;;;;11.52;5.35;;;10.70;99.90;;;;;;5050349;28;20048;-74
2022/06/08 03:12:50;;;;;;;7.10;5.03;;;10.70;99.90;;;;;;5047280;28;20057;-75
2022/06/08 03:15:21;;;;;;;6.88;5.03;;;10.70;99.90;;;;;;5074860;28;20098;-74
2022/06/08 03:17:49;;;;;;;11.50;5.40;;;10.70;99.90;;;;;;5033697;28;20146;-74
2022/06/08 03:20:15;;;;;;;11.98;6.30;;;10.80;99.90;;;;;;5045922;28;20663;-74
2022/06/08 03:22:41;;;;;;;9.88;5.57;;;10.70;99.90;;;;;;5039593;28;20497;-74
2022/06/08 03:25:07;;;;;;;11.77;6.20;;;10.70;99.90;;;;;;5039730;28;20060;-74
2022/06/08 03:27:36;;;;;;;10.10;6.10;;;10.70;99.90;;;;;;5042533;28;20178;-74
2022/06/08 03:30:04;;;;;;;8.95;5.78;;;10.70;99.90;;;;;;5048466;28;20109;-74
2022/06/08 03:32:29;;;;;;;15.93;6.50;;;10.70;99.90;;;;;;5046915;28;20181;-76
2022/06/08 03:34:55;;;;;;;11.10;6.53;;;10.70;99.90;;;;;;5045017;28;20045;-74
2022/06/08 03:37:20;;;;;;;11.05;6.57;;;10.70;99.90;;;;;;5041569;28;20049;-74
2022/06/08 03:39:46;;;;;;;12.52;7.50;;;10.70;99.90;;;;;;5049948;28;20555;-74
2022/06/08 03:42:12;;;;;;;11.18;6.40;;;10.70;99.90;;;;;;5048674;28;20128;-74
2022/06/08 03:44:37;;;;;;;16.73;7.32;;;10.70;99.90;;;;;;5041458;28;20446;-75
2022/06/08 03:47:11;;;;;;;18.10;8.20;;;10.70;99.90;;;;;;5042010;28;20036;-74
2022/06/08 03:49:37;;;;;;;11.88;7.28;;;10.70;99.90;;;;;;5047745;28;20049;-75
2022/06/08 03:52:09;;;;;;;12.82;7.63;;;10.70;99.90;;;;;;5040842;28;20051;-74
2022/06/08 03:54:40;;;;;;;13.48;7.97;;;10.70;99.90;;;;;;5045954;28;20045;-75
2022/06/08 03:57:07;;;;;;;13.80;7.87;;;10.70;99.90;;;;;;5040610;28;20059;-75
2022/06/08 03:59:34;;;;;;;14.63;7.93;;;10.70;99.90;;;;;;5046774;28;20041;-75
2022/06/08 04:02:00;;;;;;;15.57;9.02;;;10.60;99.90;;;;;;5076646;28;20100;-75
2022/06/08 04:04:26;;;;;;;15.60;8.05;;;10.70;99.90;;;;;;5032739;28;20045;-74
2022/06/08 04:06:52;;;;;;;15.13;8.93;;;10.70;99.90;;;;;;5046736;28;20124;-74
2022/06/08 04:09:17;;;;;;;17.48;9.15;;;10.70;99.90;;;;;;5067219;28;20155;-74
2022/06/08 04:11:43;;;;;;;15.32;9.25;;;10.70;99.90;;;;;;5043978;28;20067;-74
2022/06/08 04:14:09;;;;;;;16.15;8.63;;;10.70;99.90;;;;;;5044542;28;20137;-74
2022/06/08 04:16:35;;;;;;;12.93;8.75;;;10.80;99.90;;;;;;5045148;28;20404;-74
2022/06/08 04:19:00;;;;;;;19.42;9.50;;;10.70;99.90;;;;;;5046460;28;20048;-74
2022/06/08 04:21:26;;;;;;;16.58;8.73;;;10.80;99.90;;;;;;5038446;28;20045;-74
2022/06/08 04:23:52;;;;;;;20.08;9.25;;;10.80;99.90;;;;;;5038391;28;20051;-73
2022/06/08 04:26:19;;;;;;;16.95;9.52;;;10.90;99.90;;;;;;5043048;28;20045;-74
2022/06/08 04:28:45;;;;;;;14.70;9.32;;;11.10;99.90;;;;;;5045720;28;20060;-74
2022/06/08 04:31:12;;;;;;;14.75;9.15;;;11.00;99.90;;;;;;5045440;28;20048;-74
2022/06/08 04:33:38;;;;;;;21.45;9.15;;;11.00;99.90;;;;;;5042736;28;20243;-74
2022/06/08 04:36:05;;;;;;;17.58;9.60;;;11.10;99.90;;;;;;5045369;28;20133;-74
2022/06/08 04:38:31;;;;;;;15.07;9.38;;;11.20;99.90;;;;;;5065974;28;20051;-74
2022/06/08 04:40:57;;;;;;;13.52;8.50;;;11.30;99.90;;;;;;5044480;28;20401;-75
2022/06/08 04:43:23;;;;;;;16.17;10.48;;;11.30;99.90;;;;;;5047452;28;20048;-75
2022/06/08 04:45:49;;;;;;;17.65;9.98;;;11.40;99.90;;;;;;5039818;28;20132;-76
2022/06/08 04:48:15;;;;;;;21.58;10.73;;;11.60;99.90;;;;;;5046217;28;20544;-74
2022/06/08 04:50:40;;;;;;;14.55;9.18;;;11.50;99.90;;;;;;5045477;28;20132;-73
2022/06/08 04:53:09;;;;;;;18.08;11.10;;;11.60;99.90;;;;;;5043821;28;20439;-75
2022/06/08 04:55:35;;;;;;;17.05;9.90;;;11.60;99.90;;;;;;5038317;28;20088;-75
2022/06/08 04:58:01;;;;;;;15.40;10.50;;;11.80;99.90;;;;;;5038038;28;20091;-75
2022/06/08 05:00:28;;;;;;;18.40;10.25;;;11.80;99.90;;;;;;5046278;28;20108;-75
2022/06/08 05:02:54;;;;;;;17.88;10.15;;;11.80;99.90;;;;;;5046216;28;20041;-74
2022/06/08 05:05:37;;;;;;;20.60;10.65;;;11.90;99.90;;;;;;5042817;28;20030;-75
2022/06/08 05:08:05;;;;;;;19.73;11.25;;;12.00;99.90;;;;;;5036439;28;20055;-75
2022/06/08 05:10:32;;;;;;;17.00;11.45;;;12.00;99.90;;;;;;5041081;28;20493;-75
2022/06/08 05:12:59;;;;;;;17.30;10.57;;;12.20;99.90;;;;;;5030915;28;20056;-74
2022/06/08 05:15:31;;;;;;;20.27;12.40;;;12.30;99.90;;;;;;5044634;28;20655;-75
2022/06/08 05:17:58;;;;;;;22.00;12.82;;;12.30;99.90;;;;;;5046018;28;20045;-75
2022/06/08 05:20:24;;;;;;;22.33;13.77;;;12.50;99.90;;;;;;5046880;28;20052;-75
2022/06/08 05:22:51;;;;;;;21.17;12.82;;;12.50;99.90;;;;;;5045062;28;20037;-75
2022/06/08 05:25:22;;;;;;;21.00;13.02;;;12.50;99.90;;;;;;5038630;28;20060;-75
2022/06/08 05:27:48;;;;;;;;;;;12.60;99.90;;;;;;5044387;28;20040;-73
2022/06/08 05:30:14;;;;;;;21.65;13.23;;;12.60;99.90;;;;;;5044301;28;19931;-73
2022/06/08 05:32:41;;;;;;;23.92;12.93;;;12.70;99.90;;;;;;5045887;28;20155;-73
2022/06/08 05:35:07;;;;;;;20.70;12.93;;;12.80;99.90;;;;;;5043246;28;20075;-73
2022/06/08 05:37:33;;;;;;;21.13;13.00;;;12.80;99.90;;;;;;5044795;28;20045;-73
2022/06/08 05:39:59;;;;;;;22.60;14.77;;;12.90;99.90;;;;;;5047168;28;20041;-74
2022/06/08 05:42:25;;;;;;;26.00;15.40;;;12.90;99.90;;;;;;5049574;28;20044;-76
2022/06/08 05:44:51;;;;;;;23.98;13.68;;;13.00;99.90;;;;;;5041315;28;20049;-74
2022/06/08 05:47:16;;;;;;;21.55;14.82;;;13.00;99.90;;;;;;5047574;28;20128;-74
2022/06/08 05:49:43;;;;;;;24.10;14.75;;;13.10;99.90;;;;;;5047994;28;20420;-74
2022/06/08 05:52:09;;;;;;;22.73;14.85;;;13.20;99.90;;;;;;5048218;28;20049;-74
2022/06/08 05:54:35;;;;;;;19.60;13.55;;;13.20;99.90;;;;;;5045289;28;20052;-74
2022/06/08 05:57:01;;;;;;;24.75;13.90;;;13.30;99.90;;;;;;5049104;28;20060;-74
2022/06/08 05:59:27;;;;;;;22.65;15.18;;;13.30;99.90;;;;;;5047171;28;20143;-74
2022/06/08 06:01:54;;;;;;;22.58;14.90;;;13.40;99.90;;;;;;5046759;28;20488;-74
2022/06/08 06:04:20;;;;;;;23.95;16.17;;;13.40;99.90;;;;;;5048194;28;20053;-75
2022/06/08 06:06:46;;;;;;;24.20;15.07;;;13.50;99.90;;;;;;5038059;28;20060;-74
2022/06/08 06:09:15;;;;;;;23.98;16.30;;;13.60;99.90;;;;;;5038495;28;20140;-76
2022/06/08 06:11:40;;;;;;;23.23;16.25;;;13.60;99.90;;;;;;5049738;28;20126;-77
2022/06/08 06:14:07;;;;;;;23.67;15.52;;;13.70;99.90;;;;;;5047496;28;20160;-77
2022/06/08 06:16:33;;;;;;;21.20;15.27;;;13.70;99.90;;;;;;5044374;28;20051;-76
2022/06/08 06:18:59;;;;;;;22.90;15.02;;;13.80;99.90;;;;;;5046588;28;20033;-77
2022/06/08 06:21:25;;;;;;;23.10;14.90;;;13.90;99.90;;;;;;5045993;28;20057;-77
2022/06/08 06:23:59;;;;;;;21.95;15.82;;;13.90;99.90;;;;;;5045824;28;20053;-77
2022/06/08 06:26:25;;;;;;;23.65;15.30;;;14.00;99.90;;;;;;5047612;28;20061;-78
2022/06/08 06:28:51;;;;;;;24.48;15.63;;;14.10;99.90;;;;;;5049587;28;20071;-77
2022/06/08 06:31:22;;;;;;;24.90;14.95;;;14.20;99.90;;;;;;5050057;28;20088;-77
2022/06/08 06:33:48;;;;;;;18.42;13.55;;;14.20;99.90;;;;;;5049572;28;20124;-77
2022/06/08 06:36:14;;;;;;;24.33;14.85;;;14.30;99.90;;;;;;5045886;28;20579;-77
2022/06/08 06:38:40;;;;;;;20.27;13.65;;;14.40;99.90;;;;;;5048222;28;20041;-77
2022/06/08 06:41:05;;;;;;;18.83;13.80;;;14.50;99.90;;;;;;5050461;28;20133;-77
2022/06/08 06:43:31;;;;;;;22.35;14.25;;;14.50;99.90;;;;;;5050703;28;20087;-77
2022/06/08 06:45:57;;;;;;;19.83;12.98;;;14.60;99.90;;;;;;5041830;28;20045;-78
2022/06/08 06:48:22;;;;;;;20.77;12.32;;;14.60;99.90;;;;;;5045108;28;20338;-76
2022/06/08 06:50:48;;;;;;;21.85;13.63;;;14.70;99.90;;;;;;5038917;28;20041;-77
2022/06/08 06:53:14;;;;;;;18.38;11.77;;;14.80;99.90;;;;;;5042148;28;20056;-78
2022/06/08 06:55:40;;;;;;;17.40;12.63;;;14.90;99.90;;;;;;5056923;28;20056;-77
2022/06/08 06:58:06;;;;;;;17.52;11.77;;;15.00;99.90;;;;;;5036778;28;20508;-77
2022/06/08 07:00:33;;;;;;;18.65;12.50;;;15.10;99.90;;;;;;5048679;28;20037;-78
2022/06/08 07:02:59;;;;;;;20.27;12.48;;;15.10;99.90;;;;;;5045935;28;20034;-77
2022/06/08 07:05:29;;;;;;;19.05;12.32;;;15.20;99.90;;;;;;5036217;28;20056;-78
2022/06/08 07:07:56;;;;;;;20.98;12.43;;;15.30;99.90;;;;;;5030247;28;20072;-77
2022/06/08 07:10:21;;;;;;;18.85;11.85;;;15.40;99.90;;;;;;5048674;28;20052;-78
2022/06/08 07:12:47;;;;;;;18.52;12.38;;;15.50;99.90;;;;;;5039856;28;20613;-78
2022/06/08 07:15:16;;;;;;;16.40;11.02;;;15.60;99.90;;;;;;5039007;28;20340;-78
2022/06/08 07:17:42;;;;;;;16.70;11.40;;;15.70;99.90;;;;;;5035905;28;20538;-78
2022/06/08 07:20:09;;;;;;;13.52;10.07;;;15.80;99.90;;;;;;5045746;28;20058;-78
2022/06/08 07:22:34;;;;;;;14.38;10.57;;;15.80;99.90;;;;;;5041841;28;20033;-78
2022/06/08 07:25:00;;;;;;;15.23;10.55;;;15.90;99.90;;;;;;5048236;28;20056;-78
2022/06/08 07:27:26;;;;;;;16.95;10.57;;;16.00;99.90;;;;;;5045311;28;20129;-76
2022/06/08 07:29:53;;;;;;;20.02;10.32;;;16.00;99.90;;;;;;5046932;28;20079;-76
2022/06/08 07:32:19;;;;;;;17.08;9.82;;;16.10;99.90;;;;;;5046270;28;20052;-75
2022/06/08 07:34:45;;;;;;;19.58;10.52;;;16.20;99.90;;;;;;5045905;28;20702;-77
2022/06/08 07:37:10;;;;;;;12.50;9.93;;;16.20;99.90;;;;;;5045314;28;20045;-76
2022/06/08 07:39:36;;;;;;;16.30;9.52;;;16.40;99.90;;;;;;5047344;28;20444;-76
2022/06/08 07:42:03;;;;;;;19.33;9.40;;;16.50;99.90;;;;;;5046032;28;20044;-75
2022/06/08 07:44:29;;;;;;;12.38;8.43;;;16.60;99.90;;;;;;5047075;28;20098;-76
2022/06/08 07:46:55;;;;;;;13.10;8.68;;;16.80;99.90;;;;;;5029483;28;20073;-77
2022/06/08 07:49:38;;;;;;;9.48;6.70;;;16.80;99.90;;;;;;5038908;28;20644;-76
2022/06/08 07:52:07;;;;;;;15.75;7.60;;;16.90;99.90;;;;;;5039660;28;20041;-75
2022/06/08 07:54:33;;;;;;;12.57;7.10;;;17.00;99.90;;;;;;5041445;28;20048;-75
2022/06/08 07:57:01;;;;;;;11.45;7.45;;;17.00;99.90;;;;;;5041425;28;20401;-75
2022/06/08 07:59:29;;;;;;;12.77;7.15;;;17.10;99.90;;;;;;5044582;28;20445;-75
2022/06/08 08:01:55;;;;;;;10.38;6.82;;;17.20;99.90;;;;;;5046190;28;20040;-76
2022/06/08 08:04:21;;;;;;;9.40;6.55;;;17.20;99.90;;;;;;5029337;28;20092;-75
2022/06/08 08:06:47;;;;;;;8.82;6.97;;;17.30;99.90;;;;;;5038186;28;20044;-76
2022/06/08 08:09:17;;;;;;;7.40;5.40;;;17.30;99.90;;;;;;5043319;28;20345;-75
2022/06/08 08:11:45;;;;;;;8.77;6.13;;;17.40;99.90;;;;;;5037674;28;20041;-75
2022/06/08 08:14:12;;;;;;;10.13;6.13;;;17.50;99.90;;;;;;5047775;28;20041;-76
2022/06/08 08:16:39;;;;;;;11.95;5.85;;;17.50;99.90;;;;;;5045935;28;20040;-75
2022/06/08 08:19:05;;;;;;;10.65;5.82;;;17.60;99.90;;;;;;5038500;28;20455;-76
2022/06/08 08:21:32;;;;;;;9.05;5.28;;;17.60;99.90;;;;;;5044236;28;20687;-77
2022/06/08 08:23:59;;;;;;;8.98;5.05;;;17.60;99.90;;;;;;5039439;28;20640;-76
2022/06/08 08:26:26;;;;;;;6.18;4.53;;;17.80;99.90;;;;;;5043207;28;20037;-75
2022/06/08 08:28:53;;;;;;;6.65;4.50;;;17.80;99.90;;;;;;5046614;28;20106;-75
2022/06/08 08:31:18;;;;;;;8.82;5.35;;;17.90;99.90;;;;;;5044866;28;20167;-76
2022/06/08 08:33:44;;;;;;;8.73;3.90;;;17.90;99.90;;;;;;5037628;28;20413;-76
2022/06/08 08:36:10;;;;;;;6.85;3.95;;;17.90;99.90;;;;;;5069623;28;20045;-76
2022/06/08 08:38:35;;;;;;;6.97;4.40;;;18.00;99.90;;;;;;5040852;28;20048;-76
2022/06/08 08:41:02;;;;;;;6.80;4.70;;;18.10;99.90;;;;;;5067931;28;20424;-76
2022/06/08 08:43:35;;;;;;;7.90;4.07;;;18.10;99.90;;;;;;5028579;28;20068;-76
2022/06/08 08:46:03;;;;;;;5.72;3.63;;;18.20;99.90;;;;;;5040185;28;20495;-76
2022/06/08 08:48:46;;;;;;;8.40;3.80;;;18.30;99.90;;;;;;5044578;28;20127;-76
2022/06/08 08:51:15;;;;;;;6.63;4.10;;;18.40;99.90;;;;;;5040703;28;20982;-75
2022/06/08 08:54:01;;;;;;;6.72;3.45;;;18.40;99.90;;;;;;5041598;28;20037;-76
2022/06/08 08:56:38;;;;;;;8.85;3.60;;;18.50;99.90;;;;;;5026669;28;20485;-75
2022/06/08 08:59:12;;;;;;;7.47;3.72;;;18.50;99.90;;;;;;5028226;28;20053;-76
2022/06/08 09:01:39;;;;;;;6.57;3.50;;;18.60;99.90;;;;;;5045024;28;20118;-76
2022/06/08 09:04:15;;;;;;;6.05;3.30;;;18.70;99.90;;;;;;5044352;28;20527;-75
2022/06/08 09:06:41;;;;;;;5.75;3.13;;;18.60;99.90;;;;;;5027099;28;20555;-76
2022/06/08 09:09:18;;;;;;;4.72;3.20;;;18.70;99.90;;;;;;5031700;28;20041;-76
2022/06/08 09:11:45;;;;;;;5.75;1.95;;;18.70;99.90;;;;;;5043909;28;20041;-75
2022/06/08 09:14:16;;;;;;;3.65;1.80;;;18.70;99.90;;;;;;5043425;28;20048;-76
2022/06/08 09:17:08;;;;;;;3.60;1.25;;;18.80;99.90;;;;;;5050275;28;20049;-75
2022/06/08 09:19:41;;;;;;;2.50;1.35;;;18.80;99.90;;;;;;5039934;28;20045;-80
2022/06/08 09:22:06;;;;;;;4.60;1.63;;;18.90;99.90;;;;;;5040779;28;20063;-78
2022/06/08 09:24:41;;;;;;;2.42;1.20;;;19.10;99.90;;;;;;5045503;28;20037;-79
2022/06/08 09:27:28;;;;;;;4.10;1.02;;;19.10;99.90;;;;;;5045320;28;20053;-78
2022/06/08 09:30:19;;;;;;;4.03;1.10;;;19.30;99.90;;;;;;5041974;28;20049;-77
2022/06/08 09:32:49;;;;;;;2.75;1.52;;;19.30;99.90;;;;;;5041473;28;20421;-75
2022/06/08 09:35:20;;;;;;;2.67;1.00;;;19.30;99.90;;;;;;5039013;28;20043;-79
2022/06/08 09:37:48;;;;;;;4.68;1.20;;;19.40;99.90;;;;;;5048455;28;20063;-76
2022/06/08 09:43:17;;;;;;;5.47;1.70;;;19.40;99.90;;;;;;5047600;28;20497;-76
2022/06/08 09:45:51;;;;;;;2.35;1.30;;;19.50;99.90;;;;;;5042575;28;20453;-76
2022/06/08 09:51:48;;;;;;;5.32;1.23;;;19.60;99.90;;;;;;5047879;28;20049;-74
2022/06/08 09:54:47;;;;;;;3.85;1.50;;;19.70;99.90;;;;;;5072831;28;20612;-81
2022/06/08 09:57:45;;;;;;;3.58;1.88;;;19.80;99.90;;;;;;5045972;28;20045;-77
2022/06/08 10:00:44;;;;;;;4.25;1.33;;;19.90;99.90;;;;;;5003285;28;20049;-76
2022/06/08 10:03:47;;;;;;;4.72;1.50;;;20.00;99.90;;;;;;5033584;28;20067;-76
2022/06/08 10:06:39;;;;;;;3.25;1.77;;;20.10;99.90;;;;;;5038371;28;20232;-76
2022/06/08 10:09:12;;;;;;;2.85;1.42;;;20.10;99.90;;;;;;5036481;28;20086;-75
2022/06/08 10:11:42;;;;;;;6.60;2.25;;;20.20;99.90;;;;;;5050963;28;20062;-76
2022/06/08 10:14:33;;;;;;;4.40;1.70;;;20.20;99.90;;;;;;5041962;28;20126;-76
2022/06/08 10:17:20;;;;;;;6.15;2.55;;;20.40;99.90;;;;;;5034251;28;20099;-76
2022/06/08 10:20:07;;;;;;;4.88;1.85;;;20.50;99.90;;;;;;5042125;28;20446;-76
2022/06/08 10:22:42;;;;;;;2.10;1.30;;;20.40;99.90;;;;;;5044245;28;20033;-76
2022/06/08 10:25:29;;;;;;;5.05;1.85;;;20.30;99.90;;;;;;5046534;28;20131;-77
2022/06/08 10:27:59;;;;;;;4.65;1.77;;;20.30;99.90;;;;;;5042894;28;20059;-76
2022/06/08 10:30:38;;;;;;;3.67;1.50;;;20.20;99.90;;;;;;5044974;28;20130;-77
2022/06/08 10:33:13;;;;;;;3.97;1.77;;;20.20;99.90;;;;;;5047106;28;20555;-77
2022/06/08 10:35:47;;;;;;;3.25;1.80;;;20.20;99.90;;;;;;5033762;28;20120;-78
2022/06/08 10:38:33;;;;;;;7.10;2.72;;;20.20;99.90;;;;;;5040464;28;20484;-78
2022/06/08 10:41:04;;;;;;;7.03;2.30;;;20.20;99.90;;;;;;5043400;28;20056;-76
2022/06/08 10:43:34;;;;;;;5.13;2.97;;;20.20;99.90;;;;;;5039685;28;20124;-77
2022/06/08 10:46:04;;;;;;;8.50;2.33;;;20.20;99.90;;;;;;5047123;28;20095;-77
2022/06/08 10:48:35;;;;;;;5.38;2.35;;;20.10;99.90;;;;;;5043834;28;20041;-77
2022/06/08 10:51:06;;;;;;;;;;;20.20;99.90;;;;;;5075759;28;20066;-77
2022/06/08 10:56:34;;;;;;;3.55;2.35;;;20.10;99.90;;;;;;5042001;28;20074;-77
2022/06/08 10:59:05;;;;;;;4.78;2.50;;;20.10;99.90;;;;;;5045399;28;20114;-77
2022/06/08 11:01:49;;;;;;;4.63;2.47;;;20.00;99.90;;;;;;5041746;28;20053;-78
2022/06/08 11:04:30;;;;;;;7.93;2.85;;;20.00;99.90;;;;;;5042857;28;20130;-76
2022/06/08 11:07:03;;;;;;;5.68;2.40;;;20.00;99.90;;;;;;5042103;28;20079;-77
2022/06/08 11:09:34;;;;;;;5.28;2.70;;;20.10;99.90;;;;;;5049811;28;20053;-78
2022/06/08 11:12:11;;;;;;;6.50;3.10;;;20.20;99.90;;;;;;5046411;28;20051;-78
2022/06/08 11:14:42;;;;;;;8.98;3.45;;;20.30;99.90;;;;;;5043408;28;20050;-78
2022/06/08 11:17:22;;;;;;;5.78;3.15;;;20.40;99.90;;;;;;5041138;28;20048;-76
2022/06/08 11:19:50;;;;;;;8.80;2.80;;;20.40;99.90;;;;;;5037640;28;20190;-78
2022/06/08 11:22:49;;;;;;;6.80;3.28;;;20.40;99.90;;;;;;5078204;28;20397;-78
2022/06/08 11:25:29;;;;;;;4.85;2.58;;;20.40;99.90;;;;;;5030639;28;20602;-77
2022/06/08 11:28:28;;;;;;;7.03;3.30;;;20.40;99.90;;;;;;5040026;28;20135;-78
2022/06/08 11:30:57;;;;;;;4.53;2.88;;;20.30;99.90;;;;;;5043999;28;20068;-78
2022/06/08 11:33:54;;;;;;;6.05;3.15;;;20.20;99.90;;;;;;5047241;28;20040;-79
2022/06/08 11:36:47;;;;;;;4.50;2.75;;;20.20;99.90;;;;;;5039737;28;20373;-78
2022/06/08 11:39:23;;;;;;;6.50;2.55;;;20.10;99.90;;;;;;5045671;28;20109;-78
2022/06/08 11:42:08;;;;;;;5.95;3.03;;;20.00;99.90;;;;;;5039347;28;20049;-79
2022/06/08 11:44:36;;;;;;;6.18;2.22;;;20.00;99.90;;;;;;5046580;28;20033;-79
2022/06/08 11:47:24;;;;;;;9.27;2.80;;;19.90;99.90;;;;;;5042488;28;20155;-78
2022/06/08 11:49:59;;;;;;;8.20;2.47;;;19.90;99.90;;;;;;5043173;28;20064;-77
2022/06/08 11:52:41;;;;;;;4.97;2.25;;;19.80;99.90;;;;;;5039796;28;20050;-78
2022/06/08 11:55:10;;;;;;;5.40;2.17;;;19.80;99.90;;;;;;5042600;28;20118;-78
2022/06/08 11:58:08;;;;;;;7.28;2.65;;;19.80;99.90;;;;;;5066075;28;20052;-77
2022/06/08 12:00:35;;;;;;;11.02;3.13;;;19.80;99.90;;;;;;5046190;28;20048;-78
2022/06/08 12:03:05;;;;;;;7.05;3.22;;;19.70;99.90;;;;;;5042492;28;20071;-76
2022/06/08 12:05:34;;;;;;;7.63;3.78;;;19.60;99.90;;;;;;5036223;28;20056;-76
2022/06/08 12:08:22;;;;;;;5.28;3.45;;;19.60;99.90;;;;;;5037613;28;20396;-76
2022/06/08 12:10:48;;;;;;;4.47;3.30;;;19.60;99.90;;;;;;5045707;28;20061;-76
2022/06/08 12:13:21;;;;;;;5.72;3.47;;;19.50;99.90;;;;;;5045559;28;20048;-77
2022/06/08 12:15:53;;;;;;;7.43;3.50;;;19.50;99.90;;;;;;5043826;28;20049;-77
2022/06/08 12:18:30;;;;;;;9.50;3.80;;;19.40;99.90;;;;;;5036543;28;20049;-76
2022/06/08 12:21:06;;;;;;;6.40;3.15;;;19.40;99.90;;;;;;5045878;28;20079;-77
2022/06/08 12:23:58;;;;;;;6.97;3.65;;;19.40;99.90;;;;;;5043705;28;20045;-75
2022/06/08 12:26:25;;;;;;;6.25;3.33;;;19.30;99.90;;;;;;5039682;28;20091;-76
2022/06/08 12:29:04;;;;;;;9.38;4.00;;;19.30;99.90;;;;;;5039531;28;20102;-77
2022/06/08 12:31:31;;;;;;;6.75;3.67;;;19.30;99.90;;;;;;5043245;28;20072;-77
2022/06/08 12:34:17;;;;;;;7.85;3.95;;;19.20;99.90;;;;;;5045095;28;20041;-76
2022/06/08 12:36:43;;;;;;;7.32;3.28;;;19.20;99.90;;;;;;5037219;28;20053;-77
2022/06/08 12:39:18;;;;;;;8.05;3.97;;;19.30;99.90;;;;;;5033159;28;20055;-75
2022/06/08 12:41:52;;;;;;;7.38;3.42;;;19.40;99.90;;;;;;5035850;28;20164;-77
2022/06/08 12:44:20;;;;;;;5.40;3.50;;;19.40;99.90;;;;;;5042650;28;20468;-77
2022/06/08 12:46:57;;;;;;;7.75;4.00;;;19.40;99.90;;;;;;5047134;28;20090;-77
2022/06/08 12:49:26;;;;;;;10.40;4.63;;;19.30;99.90;;;;;;5045876;28;20112;-77
2022/06/08 12:51:57;;;;;;;10.57;3.90;;;19.20;99.90;;;;;;5048258;28;20056;-79
2022/06/08 12:54:31;;;;;;;;;;;19.10;99.90;;;;;;5041375;28;20033;-78
2022/06/08 12:57:20;;;;;;;18.73;4.35;;;18.80;99.90;;;;;;5048765;28;19925;-78
2022/06/08 12:59:48;;;;;;;7.15;3.60;;;18.50;99.90;;;;;;5037929;28;20054;-79
2022/06/08 13:02:21;;;;;;;11.98;4.75;;;18.30;99.90;;;;;;5049957;28;20436;-80
2022/06/08 13:04:48;;;;;;;7.47;2.47;;;18.10;99.90;;;;;;5041456;28;20048;-81
2022/06/08 13:07:17;;;;;;;7.88;2.17;;;17.90;99.90;;;;;;5044986;28;20049;-79
2022/06/08 13:09:44;;;;;;;6.00;1.75;;;17.70;99.90;;;;;;5050557;28;20094;-79
2022/06/08 13:12:13;;;;;;;4.60;1.42;;;17.50;99.90;;;;;;5045043;28;20814;-81
2022/06/08 13:14:41;;;;;;;4.10;1.45;;;17.40;99.90;;;;;;5044254;28;20040;-81
2022/06/08 13:17:08;;;;;;;6.72;1.42;;;17.20;99.90;;;;;;5042868;28;20045;-80